sensor_id;sensor_type;location;lat;lon;timestamp;temperature;humidity
10083;DHT22;5080;48.528;8.078;2023-03-04T00:00:22;2.30;99.90
10083;DHT22;5080;48.528;8.078;2023-03-04T00:02:49;2.30;99.90
10083;DHT22;5080;48.528;8.078;2023-03-04T00:05:15;2.30;99.90
10083;DHT22;5080;48.528;8.078;2023-03-04T00:07:44;2.30;99.90
10083;DHT22;5080;48.528;8.078;2023-03-04T00:10:11;2.30;99.90
10083;DHT22;5080;48.528;8.078;2023-03-04T00:12:38;2.30;99.90
10083;DHT22;5080;48.528;8.078;2023-03-04T00:15:05;2.20;99.90
10083;DHT22;5080;48.528;8.078;2023-03-04T00:17:32;2.30;99.90
10083;DHT22;5080;48.528;8.078;2023-03-04T00:19:59;2.30;99.90
10083;DHT22;5080;48.528;8.078;2023-03-04T00:22:26;2.30;99.90
10083;DHT22;5080;48.528;8.078;2023-03-04T00:24:54;2.30;99.90
10083;DHT22;5080;48.528;8.078;2023-03-04T00:27:21;2.30;99.90
10083;DHT22;5080;48.528;8.078;2023-03-04T00:29:47;2.30;99.90
10083;DHT22;5080;48.528;8.078;2023-03-04T00:32:14;2.30;99.90
10083;DHT22;5080;48.528;8.078;2023-03-04T00:34:42;2.30;99.90
10083;DHT22;5080;48.528;8.078;2023-03-04T00:37:09;2.30;99.90
10083;DHT22;5080;48.528;8.078;2023-03-04T00:39:36;2.20;99.90
10083;DHT22;5080;48.528;8.078;2023-03-04T00:42:04;2.20;99.90
10083;DHT22;5080;48.528;8.078;2023-03-04T00:44:31;2.20;99.90
10083;DHT22;5080;48.528;8.078;2023-03-04T00:46:58;2.10;99.90
10083;DHT22;5080;48.528;8.078;2023-03-04T00:49:25;2.00;99.90
10083;DHT22;5080;48.528;8.078;2023-03-04T00:51:52;2.00;99.90
10083;DHT22;5080;48.528;8.078;2023-03-04T00:54:19;1.90;99.90
10083;DHT22;5080;48.528;8.078;2023-03-04T00:56:46;1.90;99.90
10083;DHT22;5080;48.528;8.078;2023-03-04T00:59:14;1.90;99.90
10083;DHT22;5080;48.528;8.078;2023-03-04T01:01:41;1.90;99.90
10083;DHT22;5080;48.528;8.078;2023-03-04T01:04:07;1.90;99.90
10083;DHT22;5080;48.528;8.078;2023-03-04T01:06:34;1.90;99.90
10083;DHT22;5080;48.528;8.078;2023-03-04T01:09:01;1.90;99.90
10083;DHT22;5080;48.528;8.078;2023-03-04T01:11:28;1.80;99.90
10083;DHT22;5080;48.528;8.078;2023-03-04T01:13:55;1.80;99.90
10083;DHT22;5080;48.528;8.078;2023-03-04T01:16:23;1.80;99.90
10083;DHT22;5080;48.528;8.078;2023-03-04T01:18:50;1.70;99.90
10083;DHT22;5080;48.528;8.078;2023-03-04T01:21:16;1.70;99.90
10083;DHT22;5080;48.528;8.078;2023-03-04T01:23:43;1.70;99.90
10083;DHT22;5080;48.528;8.078;2023-03-04T01:26:10;1.60;99.90
10083;DHT22;5080;48.528;8.078;2023-03-04T01:28:37;1.60;99.90
10083;DHT22;5080;48.528;8.078;2023-03-04T01:31:04;1.60;99.90
10083;DHT22;5080;48.528;8.078;2023-03-04T01:33:32;1.60;99.90
10083;DHT22;5080;48.528;8.078;2023-03-04T01:35:59;1.50;99.90
10083;DHT22;5080;48.528;8.078;2023-03-04T01:38:26;1.60;99.90
10083;DHT22;5080;48.528;8.078;2023-03-04T01:40:53;1.60;99.90
10083;DHT22;5080;48.528;8.078;2023-03-04T01:43:22;1.60;99.90
10083;DHT22;5080;48.528;8.078;2023-03-04T01:45:51;1.60;99.90
10083;DHT22;5080;48.528;8.078;2023-03-04T01:48:23;1.60;99.90
10083;DHT22;5080;48.528;8.078;2023-03-04T01:50:52;1.70;99.90
10083;DHT22;5080;48.528;8.078;2023-03-04T01:53:21;1.70;99.90
10083;DHT22;5080;48.528;8.078;2023-03-04T01:55:48;1.70;99.90
10083;DHT22;5080;48.528;8.078;2023-03-04T01:58:15;1.70;99.90
10083;DHT22;5080;48.528;8.078;2023-03-04T02:00:42;1.70;99.90
10083;DHT22;5080;48.528;8.078;2023-03-04T02:03:11;1.70;99.90
10083;DHT22;5080;48.528;8.078;2023-03-04T02:05:42;1.70;99.90
10083;DHT22;5080;48.528;8.078;2023-03-04T02:08:11;1.70;99.90
10083;DHT22;5080;48.528;8.078;2023-03-04T02:10:41;1.70;99.90
10083;DHT22;5080;48.528;8.078;2023-03-04T02:13:08;1.70;99.90
10083;DHT22;5080;48.528;8.078;2023-03-04T02:15:36;1.70;99.90
10083;DHT22;5080;48.528;8.078;2023-03-04T02:18:11;1.70;99.90
10083;DHT22;5080;48.528;8.078;2023-03-04T02:20:44;1.70;99.90
10083;DHT22;5080;48.528;8.078;2023-03-04T02:23:17;1.70;99.90
10083;DHT22;5080;48.528;8.078;2023-03-04T02:25:49;1.70;99.90
10083;DHT22;5080;48.528;8.078;2023-03-04T02:28:19;1.70;99.90
10083;DHT22;5080;48.528;8.078;2023-03-04T02:30:47;1.70;99.90
10083;DHT22;5080;48.528;8.078;2023-03-04T02:33:16;1.70;99.90
10083;DHT22;5080;48.528;8.078;2023-03-04T02:35:44;1.70;99.90
10083;DHT22;5080;48.528;8.078;2023-03-04T02:38:11;1.70;99.90
10083;DHT22;5080;48.528;8.078;2023-03-04T02:40:40;1.70;99.90
10083;DHT22;5080;48.528;8.078;2023-03-04T02:43:08;1.70;99.90
10083;DHT22;5080;48.528;8.078;2023-03-04T02:45:41;1.60;99.90
10083;DHT22;5080;48.528;8.078;2023-03-04T02:48:09;1.60;99.90
10083;DHT22;5080;48.528;8.078;2023-03-04T02:50:38;1.50;99.90
10083;DHT22;5080;48.528;8.078;2023-03-04T02:53:06;1.50;99.90
10083;DHT22;5080;48.528;8.078;2023-03-04T02:55:33;1.50;99.90
10083;DHT22;5080;48.528;8.078;2023-03-04T02:57:59;1.50;99.90
10083;DHT22;5080;48.528;8.078;2023-03-04T03:00:27;1.40;99.90
10083;DHT22;5080;48.528;8.078;2023-03-04T03:02:55;1.40;99.90
10083;DHT22;5080;48.528;8.078;2023-03-04T03:05:23;1.30;99.90
10083;DHT22;5080;48.528;8.078;2023-03-04T03:07:51;1.30;99.90
10083;DHT22;5080;48.528;8.078;2023-03-04T03:10:18;1.20;99.90
10083;DHT22;5080;48.528;8.078;2023-03-04T03:12:45;1.20;99.90
10083;DHT22;5080;48.528;8.078;2023-03-04T03:15:12;1.10;99.90
10083;DHT22;5080;48.528;8.078;2023-03-04T03:17:39;1.10;99.90
10083;DHT22;5080;48.528;8.078;2023-03-04T03:20:09;1.10;99.90
10083;DHT22;5080;48.528;8.078;2023-03-04T03:22:36;1.10;99.90
10083;DHT22;5080;48.528;8.078;2023-03-04T03:25:05;1.00;99.90
10083;DHT22;5080;48.528;8.078;2023-03-04T03:27:32;1.00;99.90
10083;DHT22;5080;48.528;8.078;2023-03-04T03:29:58;1.00;99.90
10083;DHT22;5080;48.528;8.078;2023-03-04T03:32:25;1.00;99.90
10083;DHT22;5080;48.528;8.078;2023-03-04T03:34:52;0.90;99.90
10083;DHT22;5080;48.528;8.078;2023-03-04T03:37:20;0.90;99.90
10083;DHT22;5080;48.528;8.078;2023-03-04T03:39:47;0.90;99.90
10083;DHT22;5080;48.528;8.078;2023-03-04T03:42:14;0.90;99.90
10083;DHT22;5080;48.528;8.078;2023-03-04T03:44:41;0.90;99.90
10083;DHT22;5080;48.528;8.078;2023-03-04T03:47:08;0.90;99.90
10083;DHT22;5080;48.528;8.078;2023-03-04T03:49:35;0.80;99.90
10083;DHT22;5080;48.528;8.078;2023-03-04T03:52:02;0.80;99.90
10083;DHT22;5080;48.528;8.078;2023-03-04T03:54:30;0.80;99.90
10083;DHT22;5080;48.528;8.078;2023-03-04T03:56:56;0.80;99.90
10083;DHT22;5080;48.528;8.078;2023-03-04T03:59:23;0.80;99.90
10083;DHT22;5080;48.528;8.078;2023-03-04T04:01:50;0.80;99.90
10083;DHT22;5080;48.528;8.078;2023-03-04T04:04:17;0.70;99.90
10083;DHT22;5080;48.528;8.078;2023-03-04T04:06:44;0.70;99.90
10083;DHT22;5080;48.528;8.078;2023-03-04T04:09:10;0.80;99.90
10083;DHT22;5080;48.528;8.078;2023-03-04T04:11:39;0.80;99.90
10083;DHT22;5080;48.528;8.078;2023-03-04T04:14:05;0.80;99.90
10083;DHT22;5080;48.528;8.078;2023-03-04T04:16:32;0.90;99.90
10083;DHT22;5080;48.528;8.078;2023-03-04T04:18:59;0.90;99.90
10083;DHT22;5080;48.528;8.078;2023-03-04T04:21:26;0.90;99.90
10083;DHT22;5080;48.528;8.078;2023-03-04T04:23:53;1.00;99.90
10083;DHT22;5080;48.528;8.078;2023-03-04T04:26:20;0.90;99.90
10083;DHT22;5080;48.528;8.078;2023-03-04T04:28:48;1.00;99.90
10083;DHT22;5080;48.528;8.078;2023-03-04T04:31:15;1.00;99.90
10083;DHT22;5080;48.528;8.078;2023-03-04T04:33:42;1.10;99.90
10083;DHT22;5080;48.528;8.078;2023-03-04T04:36:12;1.10;99.90
10083;DHT22;5080;48.528;8.078;2023-03-04T04:38:39;1.20;99.90
10083;DHT22;5080;48.528;8.078;2023-03-04T04:41:17;1.20;99.90
10083;DHT22;5080;48.528;8.078;2023-03-04T04:43:44;1.20;99.90
10083;DHT22;5080;48.528;8.078;2023-03-04T04:46:13;1.30;99.90
10083;DHT22;5080;48.528;8.078;2023-03-04T04:48:40;1.30;99.90
10083;DHT22;5080;48.528;8.078;2023-03-04T04:51:07;1.30;99.90
10083;DHT22;5080;48.528;8.078;2023-03-04T04:53:34;1.20;99.90
10083;DHT22;5080;48.528;8.078;2023-03-04T04:56:07;1.30;99.90
10083;DHT22;5080;48.528;8.078;2023-03-04T04:58:35;1.20;99.90
10083;DHT22;5080;48.528;8.078;2023-03-04T05:01:02;1.20;99.90
10083;DHT22;5080;48.528;8.078;2023-03-04T05:03:31;1.30;99.90
10083;DHT22;5080;48.528;8.078;2023-03-04T05:05:58;1.40;99.90
10083;DHT22;5080;48.528;8.078;2023-03-04T05:08:24;1.40;99.90
10083;DHT22;5080;48.528;8.078;2023-03-04T05:10:51;1.40;99.90
10083;DHT22;5080;48.528;8.078;2023-03-04T05:13:18;1.40;99.90
10083;DHT22;5080;48.528;8.078;2023-03-04T05:15:45;1.40;99.90
10083;DHT22;5080;48.528;8.078;2023-03-04T05:18:12;1.30;99.90
10083;DHT22;5080;48.528;8.078;2023-03-04T05:20:40;1.20;99.90
10083;DHT22;5080;48.528;8.078;2023-03-04T05:23:07;1.30;99.90
10083;DHT22;5080;48.528;8.078;2023-03-04T05:25:34;1.20;99.90
10083;DHT22;5080;48.528;8.078;2023-03-04T05:28:00;1.20;99.90
10083;DHT22;5080;48.528;8.078;2023-03-04T05:30:29;1.20;99.90
10083;DHT22;5080;48.528;8.078;2023-03-04T05:32:56;1.00;99.90
10083;DHT22;5080;48.528;8.078;2023-03-04T05:35:23;1.00;99.90
10083;DHT22;5080;48.528;8.078;2023-03-04T05:37:51;1.00;99.90
10083;DHT22;5080;48.528;8.078;2023-03-04T05:40:18;1.00;99.90
10083;DHT22;5080;48.528;8.078;2023-03-04T05:42:45;0.90;99.90
10083;DHT22;5080;48.528;8.078;2023-03-04T05:45:11;1.00;99.90
10083;DHT22;5080;48.528;8.078;2023-03-04T05:47:38;0.90;99.90
10083;DHT22;5080;48.528;8.078;2023-03-04T05:50:06;0.90;99.90
10083;DHT22;5080;48.528;8.078;2023-03-04T05:52:33;0.80;99.90
10083;DHT22;5080;48.528;8.078;2023-03-04T05:55:01;0.70;99.90
10083;DHT22;5080;48.528;8.078;2023-03-04T05:57:28;0.70;99.90
10083;DHT22;5080;48.528;8.078;2023-03-04T05:59:55;0.60;99.90
10083;DHT22;5080;48.528;8.078;2023-03-04T06:02:21;0.60;99.90
10083;DHT22;5080;48.528;8.078;2023-03-04T06:04:48;0.60;99.90
10083;DHT22;5080;48.528;8.078;2023-03-04T06:07:15;0.60;99.90
10083;DHT22;5080;48.528;8.078;2023-03-04T06:09:42;0.60;99.90
10083;DHT22;5080;48.528;8.078;2023-03-04T06:12:11;0.60;99.90
10083;DHT22;5080;48.528;8.078;2023-03-04T06:14:37;0.70;99.90
10083;DHT22;5080;48.528;8.078;2023-03-04T06:17:04;0.70;99.90
10083;DHT22;5080;48.528;8.078;2023-03-04T06:19:31;0.60;99.90
10083;DHT22;5080;48.528;8.078;2023-03-04T06:21:58;0.60;99.90
10083;DHT22;5080;48.528;8.078;2023-03-04T06:24:25;0.60;99.90
10083;DHT22;5080;48.528;8.078;2023-03-04T06:26:53;0.70;99.90
10083;DHT22;5080;48.528;8.078;2023-03-04T06:29:21;0.70;99.90
10083;DHT22;5080;48.528;8.078;2023-03-04T06:31:48;0.60;99.90
10083;DHT22;5080;48.528;8.078;2023-03-04T06:34:15;0.70;99.90
10083;DHT22;5080;48.528;8.078;2023-03-04T06:36:41;0.80;99.90
10083;DHT22;5080;48.528;8.078;2023-03-04T06:39:09;0.90;99.90
10083;DHT22;5080;48.528;8.078;2023-03-04T06:41:36;0.90;99.90
10083;DHT22;5080;48.528;8.078;2023-03-04T06:44:04;0.90;99.90
10083;DHT22;5080;48.528;8.078;2023-03-04T06:46:33;1.00;99.90
10083;DHT22;5080;48.528;8.078;2023-03-04T06:49:00;1.00;99.90
10083;DHT22;5080;48.528;8.078;2023-03-04T06:51:28;1.10;99.90
10083;DHT22;5080;48.528;8.078;2023-03-04T06:53:55;1.10;99.90
10083;DHT22;5080;48.528;8.078;2023-03-04T06:56:21;1.20;99.90
10083;DHT22;5080;48.528;8.078;2023-03-04T06:58:48;1.20;99.90
10083;DHT22;5080;48.528;8.078;2023-03-04T07:01:18;1.20;99.90
10083;DHT22;5080;48.528;8.078;2023-03-04T07:03:48;1.20;99.90
10083;DHT22;5080;48.528;8.078;2023-03-04T07:06:17;1.20;99.90
10083;DHT22;5080;48.528;8.078;2023-03-04T07:08:45;1.30;99.90
10083;DHT22;5080;48.528;8.078;2023-03-04T07:11:13;1.30;99.90
10083;DHT22;5080;48.528;8.078;2023-03-04T07:13:40;1.30;99.90
10083;DHT22;5080;48.528;8.078;2023-03-04T07:16:08;1.20;99.90
10083;DHT22;5080;48.528;8.078;2023-03-04T07:18:35;1.10;99.90
10083;DHT22;5080;48.528;8.078;2023-03-04T07:21:05;1.10;99.90
10083;DHT22;5080;48.528;8.078;2023-03-04T07:23:33;1.10;99.90
10083;DHT22;5080;48.528;8.078;2023-03-04T07:26:00;1.10;99.90
10083;DHT22;5080;48.528;8.078;2023-03-04T07:28:26;1.00;99.90
10083;DHT22;5080;48.528;8.078;2023-03-04T07:30:53;1.00;99.90
10083;DHT22;5080;48.528;8.078;2023-03-04T07:33:20;1.10;99.90
10083;DHT22;5080;48.528;8.078;2023-03-04T07:35:47;1.20;99.90
10083;DHT22;5080;48.528;8.078;2023-03-04T07:38:15;1.30;99.90
10083;DHT22;5080;48.528;8.078;2023-03-04T07:40:42;1.40;99.90
10083;DHT22;5080;48.528;8.078;2023-03-04T07:43:11;1.50;99.90
10083;DHT22;5080;48.528;8.078;2023-03-04T07:45:38;1.60;99.90
10083;DHT22;5080;48.528;8.078;2023-03-04T07:48:05;1.70;99.90
10083;DHT22;5080;48.528;8.078;2023-03-04T07:50:31;1.80;99.90
10083;DHT22;5080;48.528;8.078;2023-03-04T07:52:58;1.90;99.90
10083;DHT22;5080;48.528;8.078;2023-03-04T07:55:26;2.10;99.90
10083;DHT22;5080;48.528;8.078;2023-03-04T07:57:55;2.20;99.90
10083;DHT22;5080;48.528;8.078;2023-03-04T08:00:22;2.40;99.90
10083;DHT22;5080;48.528;8.078;2023-03-04T08:02:49;2.40;99.90
10083;DHT22;5080;48.528;8.078;2023-03-04T08:05:16;2.50;99.90
10083;DHT22;5080;48.528;8.078;2023-03-04T08:07:43;2.50;99.90
10083;DHT22;5080;48.528;8.078;2023-03-04T08:10:10;2.40;99.90
10083;DHT22;5080;48.528;8.078;2023-03-04T08:12:38;2.30;99.90
10083;DHT22;5080;48.528;8.078;2023-03-04T08:15:06;2.30;99.90
10083;DHT22;5080;48.528;8.078;2023-03-04T08:17:34;2.30;99.90
10083;DHT22;5080;48.528;8.078;2023-03-04T08:20:01;2.50;99.90
10083;DHT22;5080;48.528;8.078;2023-03-04T08:22:28;2.60;99.90
10083;DHT22;5080;48.528;8.078;2023-03-04T08:24:54;2.70;99.90
10083;DHT22;5080;48.528;8.078;2023-03-04T08:27:21;2.80;99.90
10083;DHT22;5080;48.528;8.078;2023-03-04T08:29:49;2.90;99.90
10083;DHT22;5080;48.528;8.078;2023-03-04T08:32:16;2.90;99.90
10083;DHT22;5080;48.528;8.078;2023-03-04T08:34:43;2.90;99.90
10083;DHT22;5080;48.528;8.078;2023-03-04T08:37:10;2.80;99.90
10083;DHT22;5080;48.528;8.078;2023-03-04T08:39:37;2.90;99.90
10083;DHT22;5080;48.528;8.078;2023-03-04T08:42:04;2.90;99.90
10083;DHT22;5080;48.528;8.078;2023-03-04T08:44:30;3.00;99.90
10083;DHT22;5080;48.528;8.078;2023-03-04T08:46:58;3.00;99.90
10083;DHT22;5080;48.528;8.078;2023-03-04T08:49:25;2.90;99.90
10083;DHT22;5080;48.528;8.078;2023-03-04T08:51:52;3.00;99.90
10083;DHT22;5080;48.528;8.078;2023-03-04T08:54:19;3.00;99.90
10083;DHT22;5080;48.528;8.078;2023-03-04T08:56:46;3.00;99.90
10083;DHT22;5080;48.528;8.078;2023-03-04T08:59:12;3.00;99.90
10083;DHT22;5080;48.528;8.078;2023-03-04T09:01:40;2.80;99.90
10083;DHT22;5080;48.528;8.078;2023-03-04T09:04:08;2.80;99.90
10083;DHT22;5080;48.528;8.078;2023-03-04T09:06:35;2.80;99.90
10083;DHT22;5080;48.528;8.078;2023-03-04T09:09:02;2.90;99.90
10083;DHT22;5080;48.528;8.078;2023-03-04T09:11:30;2.80;99.90
10083;DHT22;5080;48.528;8.078;2023-03-04T09:13:57;2.70;99.90
10083;DHT22;5080;48.528;8.078;2023-03-04T09:16:24;3.10;99.90
10083;DHT22;5080;48.528;8.078;2023-03-04T09:18:50;3.40;99.90
10083;DHT22;5080;48.528;8.078;2023-03-04T09:21:19;3.60;99.90
10083;DHT22;5080;48.528;8.078;2023-03-04T09:23:45;3.60;99.90
10083;DHT22;5080;48.528;8.078;2023-03-04T09:26:14;3.80;99.90
10083;DHT22;5080;48.528;8.078;2023-03-04T09:28:41;4.00;99.90
10083;DHT22;5080;48.528;8.078;2023-03-04T09:31:12;4.20;99.90
10083;DHT22;5080;48.528;8.078;2023-03-04T09:33:39;4.30;99.90
10083;DHT22;5080;48.528;8.078;2023-03-04T09:36:08;4.30;99.90
10083;DHT22;5080;48.528;8.078;2023-03-04T09:38:37;4.50;99.90
10083;DHT22;5080;48.528;8.078;2023-03-04T09:41:07;4.80;99.90
10083;DHT22;5080;48.528;8.078;2023-03-04T09:43:36;5.00;99.90
10083;DHT22;5080;48.528;8.078;2023-03-04T09:46:07;5.20;99.90
10083;DHT22;5080;48.528;8.078;2023-03-04T09:48:39;5.40;99.90
10083;DHT22;5080;48.528;8.078;2023-03-04T09:51:19;5.70;99.90
10083;DHT22;5080;48.528;8.078;2023-03-04T09:53:57;6.10;99.90
10083;DHT22;5080;48.528;8.078;2023-03-04T09:56:25;6.20;99.90
10083;DHT22;5080;48.528;8.078;2023-03-04T09:58:58;6.10;99.90
10083;DHT22;5080;48.528;8.078;2023-03-04T10:01:32;6.20;99.90
10083;DHT22;5080;48.528;8.078;2023-03-04T10:04:04;6.40;99.90
10083;DHT22;5080;48.528;8.078;2023-03-04T10:06:33;6.40;99.90
10083;DHT22;5080;48.528;8.078;2023-03-04T10:09:03;6.00;99.90
10083;DHT22;5080;48.528;8.078;2023-03-04T10:11:36;5.90;99.90
10083;DHT22;5080;48.528;8.078;2023-03-04T10:14:20;6.00;99.90
10083;DHT22;5080;48.528;8.078;2023-03-04T10:16:54;6.10;99.90
10083;DHT22;5080;48.528;8.078;2023-03-04T10:19:29;6.10;99.90
10083;DHT22;5080;48.528;8.078;2023-03-04T10:21:58;6.30;99.90
10083;DHT22;5080;48.528;8.078;2023-03-04T10:24:28;6.20;99.90
10083;DHT22;5080;48.528;8.078;2023-03-04T10:27:00;6.00;99.90
10083;DHT22;5080;48.528;8.078;2023-03-04T10:29:30;5.80;99.90
10083;DHT22;5080;48.528;8.078;2023-03-04T10:31:58;5.90;99.90
10083;DHT22;5080;48.528;8.078;2023-03-04T10:34:25;6.10;99.90
10083;DHT22;5080;48.528;8.078;2023-03-04T10:36:58;6.10;99.90
10083;DHT22;5080;48.528;8.078;2023-03-04T10:39:29;6.00;99.90
10083;DHT22;5080;48.528;8.078;2023-03-04T10:41:59;6.20;99.90
10083;DHT22;5080;48.528;8.078;2023-03-04T10:44:28;6.20;99.90
10083;DHT22;5080;48.528;8.078;2023-03-04T10:46:56;6.30;99.90
10083;DHT22;5080;48.528;8.078;2023-03-04T10:49:25;6.60;99.90
10083;DHT22;5080;48.528;8.078;2023-03-04T10:51:54;6.80;99.90
10083;DHT22;5080;48.528;8.078;2023-03-04T10:54:30;6.80;99.90
10083;DHT22;5080;48.528;8.078;2023-03-04T10:57:00;6.80;99.90
10083;DHT22;5080;48.528;8.078;2023-03-04T10:59:37;6.90;99.90
10083;DHT22;5080;48.528;8.078;2023-03-04T11:02:15;7.00;99.90
10083;DHT22;5080;48.528;8.078;2023-03-04T11:04:43;7.10;99.90
10083;DHT22;5080;48.528;8.078;2023-03-04T11:07:14;7.10;99.90
10083;DHT22;5080;48.528;8.078;2023-03-04T11:09:44;7.20;99.90
10083;DHT22;5080;48.528;8.078;2023-03-04T11:12:12;7.20;99.90
10083;DHT22;5080;48.528;8.078;2023-03-04T11:14:41;7.00;99.90
10083;DHT22;5080;48.528;8.078;2023-03-04T11:17:22;7.10;99.90
10083;DHT22;5080;48.528;8.078;2023-03-04T11:19:55;7.30;99.90
10083;DHT22;5080;48.528;8.078;2023-03-04T11:22:27;7.40;99.90
10083;DHT22;5080;48.528;8.078;2023-03-04T11:25:04;7.30;99.90
10083;DHT22;5080;48.528;8.078;2023-03-04T11:27:42;7.30;99.90
10083;DHT22;5080;48.528;8.078;2023-03-04T11:30:26;7.50;99.90
10083;DHT22;5080;48.528;8.078;2023-03-04T11:33:00;7.50;99.90
10083;DHT22;5080;48.528;8.078;2023-03-04T11:35:32;7.50;99.90
10083;DHT22;5080;48.528;8.078;2023-03-04T11:38:05;7.60;99.90
10083;DHT22;5080;48.528;8.078;2023-03-04T11:40:41;7.70;99.90
10083;DHT22;5080;48.528;8.078;2023-03-04T11:43:12;7.60;99.90
10083;DHT22;5080;48.528;8.078;2023-03-04T11:46:07;7.60;99.90
10083;DHT22;5080;48.528;8.078;2023-03-04T11:48:47;7.40;99.90
10083;DHT22;5080;48.528;8.078;2023-03-04T11:51:21;7.40;99.90
10083;DHT22;5080;48.528;8.078;2023-03-04T11:54:07;7.60;99.90
10083;DHT22;5080;48.528;8.078;2023-03-04T11:56:42;7.70;99.90
10083;DHT22;5080;48.528;8.078;2023-03-04T11:59:35;7.60;99.90
10083;DHT22;5080;48.528;8.078;2023-03-04T12:02:17;7.70;99.90
10083;DHT22;5080;48.528;8.078;2023-03-04T12:05:16;7.60;99.90
10083;DHT22;5080;48.528;8.078;2023-03-04T12:08:07;7.50;99.90
10083;DHT22;5080;48.528;8.078;2023-03-04T12:10:43;7.60;99.90
10083;DHT22;5080;48.528;8.078;2023-03-04T12:13:29;7.70;99.90
10083;DHT22;5080;48.528;8.078;2023-03-04T12:16:10;7.60;99.90
10083;DHT22;5080;48.528;8.078;2023-03-04T12:18:53;7.70;99.90
10083;DHT22;5080;48.528;8.078;2023-03-04T12:24:25;7.70;99.90
10083;DHT22;5080;48.528;8.078;2023-03-04T12:26:56;7.90;99.90
10083;DHT22;5080;48.528;8.078;2023-03-04T12:29:33;7.80;99.90
10083;DHT22;5080;48.528;8.078;2023-03-04T12:32:07;7.70;99.90
10083;DHT22;5080;48.528;8.078;2023-03-04T12:34:45;7.70;99.90
10083;DHT22;5080;48.528;8.078;2023-03-04T12:37:34;7.80;99.90
10083;DHT22;5080;48.528;8.078;2023-03-04T12:40:29;7.90;99.90
10083;DHT22;5080;48.528;8.078;2023-03-04T12:43:06;8.00;99.90
10083;DHT22;5080;48.528;8.078;2023-03-04T12:45:40;8.00;99.90
10083;DHT22;5080;48.528;8.078;2023-03-04T12:48:19;7.80;99.90
10083;DHT22;5080;48.528;8.078;2023-03-04T12:50:58;7.70;99.90
10083;DHT22;5080;48.528;8.078;2023-03-04T12:53:31;7.60;99.90
10083;DHT22;5080;48.528;8.078;2023-03-04T12:56:02;7.60;99.90
10083;DHT22;5080;48.528;8.078;2023-03-04T12:58:32;7.50;99.90
10083;DHT22;5080;48.528;8.078;2023-03-04T13:01:05;7.60;99.90
10083;DHT22;5080;48.528;8.078;2023-03-04T13:03:42;7.50;99.90
10083;DHT22;5080;48.528;8.078;2023-03-04T13:06:19;7.60;99.90
10083;DHT22;5080;48.528;8.078;2023-03-04T13:08:55;7.50;99.90
10083;DHT22;5080;48.528;8.078;2023-03-04T13:12:02;7.50;99.90
10083;DHT22;5080;48.528;8.078;2023-03-04T13:14:31;7.50;99.90
10083;DHT22;5080;48.528;8.078;2023-03-04T13:17:02;7.50;99.90
10083;DHT22;5080;48.528;8.078;2023-03-04T13:19:55;7.60;99.90
10083;DHT22;5080;48.528;8.078;2023-03-04T13:22:33;7.90;99.90
10083;DHT22;5080;48.528;8.078;2023-03-04T13:25:28;8.00;99.90
10083;DHT22;5080;48.528;8.078;2023-03-04T13:28:15;7.90;99.90
10083;DHT22;5080;48.528;8.078;2023-03-04T13:34:09;7.80;99.90
10083;DHT22;5080;48.528;8.078;2023-03-04T13:36:54;7.70;99.90
10083;DHT22;5080;48.528;8.078;2023-03-04T13:39:39;7.70;99.90
10083;DHT22;5080;48.528;8.078;2023-03-04T13:42:38;7.50;99.90
10083;DHT22;5080;48.528;8.078;2023-03-04T13:45:29;7.60;99.90
10083;DHT22;5080;48.528;8.078;2023-03-04T13:47:57;7.70;99.90
10083;DHT22;5080;48.528;8.078;2023-03-04T13:50:40;7.60;99.90
10083;DHT22;5080;48.528;8.078;2023-03-04T13:56:31;7.70;99.90
10083;DHT22;5080;48.528;8.078;2023-03-04T13:59:14;7.60;99.90
10083;DHT22;5080;48.528;8.078;2023-03-04T14:02:02;7.70;99.90
10083;DHT22;5080;48.528;8.078;2023-03-04T14:04:32;7.70;99.90
10083;DHT22;5080;48.528;8.078;2023-03-04T14:07:02;7.50;99.90
10083;DHT22;5080;48.528;8.078;2023-03-04T14:09:31;7.60;99.90
10083;DHT22;5080;48.528;8.078;2023-03-04T14:12:00;7.50;99.90
10083;DHT22;5080;48.528;8.078;2023-03-04T14:14:31;7.50;99.90
10083;DHT22;5080;48.528;8.078;2023-03-04T14:17:03;7.40;99.90
10083;DHT22;5080;48.528;8.078;2023-03-04T14:19:32;7.30;99.90
10083;DHT22;5080;48.528;8.078;2023-03-04T14:22:02;7.30;99.90
10083;DHT22;5080;48.528;8.078;2023-03-04T14:24:28;7.50;99.90
10083;DHT22;5080;48.528;8.078;2023-03-04T14:27:10;7.50;99.90
10083;DHT22;5080;48.528;8.078;2023-03-04T14:29:37;7.60;99.90
10083;DHT22;5080;48.528;8.078;2023-03-04T14:32:05;7.70;99.90
10083;DHT22;5080;48.528;8.078;2023-03-04T14:34:35;7.70;99.90
10083;DHT22;5080;48.528;8.078;2023-03-04T14:37:18;7.60;99.90
10083;DHT22;5080;48.528;8.078;2023-03-04T14:39:48;7.50;99.90
10083;DHT22;5080;48.528;8.078;2023-03-04T14:42:17;7.40;99.90
10083;DHT22;5080;48.528;8.078;2023-03-04T14:44:46;7.40;99.90
10083;DHT22;5080;48.528;8.078;2023-03-04T14:47:16;7.30;99.90
10083;DHT22;5080;48.528;8.078;2023-03-04T14:49:44;7.50;99.90
10083;DHT22;5080;48.528;8.078;2023-03-04T14:52:34;7.40;99.90
10083;DHT22;5080;48.528;8.078;2023-03-04T14:55:16;7.50;99.90
10083;DHT22;5080;48.528;8.078;2023-03-04T14:57:45;7.40;99.90
10083;DHT22;5080;48.528;8.078;2023-03-04T15:00:23;7.40;99.90
10083;DHT22;5080;48.528;8.078;2023-03-04T15:02:52;7.20;99.90
10083;DHT22;5080;48.528;8.078;2023-03-04T15:05:24;7.40;99.90
10083;DHT22;5080;48.528;8.078;2023-03-04T15:07:54;7.20;99.90
10083;DHT22;5080;48.528;8.078;2023-03-04T15:10:23;7.20;99.90
10083;DHT22;5080;48.528;8.078;2023-03-04T15:12:51;7.00;99.90
10083;DHT22;5080;48.528;8.078;2023-03-04T15:15:40;7.10;99.90
10083;DHT22;5080;48.528;8.078;2023-03-04T15:18:21;7.00;99.90
10083;DHT22;5080;48.528;8.078;2023-03-04T15:20:55;6.90;99.90
10083;DHT22;5080;48.528;8.078;2023-03-04T15:23:24;6.80;99.90
10083;DHT22;5080;48.528;8.078;2023-03-04T15:25:53;6.80;99.90
10083;DHT22;5080;48.528;8.078;2023-03-04T15:28:21;6.60;99.90
10083;DHT22;5080;48.528;8.078;2023-03-04T15:30:48;6.50;99.90
10083;DHT22;5080;48.528;8.078;2023-03-04T15:33:15;6.50;99.90
10083;DHT22;5080;48.528;8.078;2023-03-04T15:35:50;6.50;99.90
10083;DHT22;5080;48.528;8.078;2023-03-04T15:38:18;6.50;99.90
10083;DHT22;5080;48.528;8.078;2023-03-04T15:40:46;6.50;99.90
10083;DHT22;5080;48.528;8.078;2023-03-04T15:43:14;6.50;99.90
10083;DHT22;5080;48.528;8.078;2023-03-04T15:45:42;6.50;99.90
10083;DHT22;5080;48.528;8.078;2023-03-04T15:48:11;6.30;99.90
10083;DHT22;5080;48.528;8.078;2023-03-04T15:50:40;6.20;99.90
10083;DHT22;5080;48.528;8.078;2023-03-04T15:53:11;6.20;99.90
10083;DHT22;5080;48.528;8.078;2023-03-04T15:55:41;6.10;99.90
10083;DHT22;5080;48.528;8.078;2023-03-04T15:58:11;6.00;99.90
10083;DHT22;5080;48.528;8.078;2023-03-04T16:00:38;5.90;99.90
10083;DHT22;5080;48.528;8.078;2023-03-04T16:03:05;6.00;99.90
10083;DHT22;5080;48.528;8.078;2023-03-04T16:05:35;5.80;99.90
10083;DHT22;5080;48.528;8.078;2023-03-04T16:08:02;5.80;99.90
10083;DHT22;5080;48.528;8.078;2023-03-04T16:10:29;5.80;99.90
10083;DHT22;5080;48.528;8.078;2023-03-04T16:12:56;5.80;99.90
10083;DHT22;5080;48.528;8.078;2023-03-04T16:15:25;5.70;99.90
10083;DHT22;5080;48.528;8.078;2023-03-04T16:17:53;5.60;99.90
10083;DHT22;5080;48.528;8.078;2023-03-04T16:20:22;5.60;99.90
10083;DHT22;5080;48.528;8.078;2023-03-04T16:22:50;5.60;99.90
10083;DHT22;5080;48.528;8.078;2023-03-04T16:25:19;5.50;99.90
10083;DHT22;5080;48.528;8.078;2023-03-04T16:27:46;5.50;99.90
10083;DHT22;5080;48.528;8.078;2023-03-04T16:30:15;5.50;99.90